createdAt,value
2019-03-30T00:00:51.889Z,155.10
2019-03-30T00:03:20.248Z,158.20
2019-03-30T00:05:48.556Z,170.20
2019-03-30T00:08:16.843Z,166.37
2019-03-30T00:10:46.063Z,167.87
2019-03-30T00:13:14.661Z,163.53
2019-03-30T00:15:43.318Z,155.10
2019-03-30T00:18:11.606Z,154.87
2019-03-30T00:20:39.913Z,148.43
2019-03-30T00:23:08.205Z,156.67
2019-03-30T00:25:36.526Z,142.17
2019-03-30T00:28:04.826Z,136.77
2019-03-30T00:30:33.727Z,147.23
2019-03-30T00:33:02.015Z,145.03
2019-03-30T00:35:30.782Z,146.97
2019-03-30T00:37:59.367Z,133.07
2019-03-30T00:40:27.710Z,132.73
2019-03-30T00:42:56.432Z,130.87
2019-03-30T00:45:24.721Z,127.90
2019-03-30T00:47:53.297Z,125.47
2019-03-30T00:50:21.602Z,130.93
2019-03-30T00:52:49.914Z,135.90
2019-03-30T00:55:18.529Z,136.37
2019-03-30T00:57:47.283Z,140.03
2019-03-30T01:00:15.714Z,141.77
2019-03-30T01:02:44.363Z,144.07
2019-03-30T01:05:12.716Z,150.93
2019-03-30T01:07:41.114Z,160.93
2019-03-30T01:10:09.729Z,155.47
2019-03-30T01:12:38.429Z,170.30
2019-03-30T01:15:08.118Z,161.77
2019-03-30T01:17:36.711Z,164.13
2019-03-30T01:20:08.057Z,155.70
2019-03-30T01:22:36.742Z,160.83
2019-03-30T01:25:07.141Z,153.37
2019-03-30T01:27:35.756Z,160.93
2019-03-30T01:30:05.371Z,158.07
2019-03-30T01:32:35.201Z,155.63
2019-03-30T01:35:05.166Z,152.00
2019-03-30T01:37:33.543Z,152.30
2019-03-30T01:40:01.855Z,146.37
2019-03-30T01:42:30.142Z,146.13
2019-03-30T01:44:58.459Z,149.27
2019-03-30T01:47:27.199Z,146.50
2019-03-30T01:49:55.772Z,144.33
2019-03-30T01:52:24.357Z,141.30
2019-03-30T01:54:52.938Z,138.50
2019-03-30T01:57:21.267Z,136.33
2019-03-30T01:59:49.554Z,141.97
2019-03-30T02:02:20.862Z,140.83
2019-03-30T02:04:49.156Z,137.83
2019-03-30T02:07:17.710Z,135.07
2019-03-30T02:09:46.287Z,135.20
2019-03-30T02:12:14.875Z,134.17
2019-03-30T02:14:43.198Z,137.40
2019-03-30T02:17:11.485Z,130.13
2019-03-30T02:19:40.113Z,133.07
2019-03-30T02:22:08.437Z,133.63
2019-03-30T02:24:36.791Z,127.23
2019-03-30T02:27:05.447Z,127.43
2019-03-30T02:29:34.054Z,129.17
2019-03-30T02:32:02.427Z,125.60
2019-03-30T02:34:30.716Z,127.83
2019-03-30T02:36:59.036Z,127.33
2019-03-30T02:39:27.329Z,123.10
2019-03-30T02:41:55.674Z,124.20
2019-03-30T02:44:23.972Z,123.17
2019-03-30T02:46:52.265Z,123.20
2019-03-30T02:49:20.604Z,120.67
2019-03-30T02:51:49.073Z,120.00
2019-03-30T02:54:17.726Z,116.47
2019-03-30T02:56:46.013Z,117.30
2019-03-30T02:59:14.328Z,116.37
2019-03-30T03:01:42.612Z,117.20
2019-03-30T03:04:10.900Z,110.03
2019-03-30T03:06:39.204Z,115.50
2019-03-30T03:09:09.942Z,116.77
2019-03-30T03:11:38.571Z,113.57
2019-03-30T03:14:06.866Z,105.60
2019-03-30T03:16:35.174Z,110.20
2019-03-30T03:19:03.559Z,109.73
2019-03-30T03:21:33.662Z,110.00
2019-03-30T03:24:02.264Z,108.13
2019-03-30T03:26:30.560Z,107.60
2019-03-30T03:28:59.051Z,107.33
2019-03-30T03:31:27.583Z,106.63
2019-03-30T03:33:56.009Z,109.03
2019-03-30T03:36:24.315Z,102.20
2019-03-30T03:38:52.617Z,103.00
2019-03-30T03:41:22.462Z,98.60
2019-03-30T03:43:50.753Z,104.73
2019-03-30T03:46:19.140Z,101.63
2019-03-30T03:48:47.438Z,102.13
2019-03-30T03:51:25.502Z,100.90
2019-03-30T03:53:45.827Z,99.93
2019-03-30T03:56:14.197Z,99.23
2019-03-30T03:58:42.506Z,101.57
2019-03-30T04:01:11.061Z,101.07
2019-03-30T04:03:39.347Z,98.23
2019-03-30T04:06:07.997Z,100.57
2019-03-30T04:08:36.372Z,94.33
2019-03-30T04:11:04.657Z,95.43
2019-03-30T04:13:32.967Z,95.80
2019-03-30T04:16:01.237Z,93.87
2019-03-30T04:18:29.617Z,98.73
2019-03-30T04:20:58.364Z,90.93
2019-03-30T04:23:26.660Z,92.80
2019-03-30T04:25:54.943Z,92.70
2019-03-30T04:28:23.251Z,86.30
2019-03-30T04:30:51.629Z,91.70
2019-03-30T04:33:20.251Z,87.10
2019-03-30T04:35:48.839Z,85.63
2019-03-30T04:38:17.126Z,90.77
2019-03-30T04:40:45.706Z,86.47
2019-03-30T04:43:14.280Z,89.90
2019-03-30T04:45:42.971Z,85.17
2019-03-30T04:48:11.255Z,86.50
2019-03-30T04:50:39.556Z,82.40
2019-03-30T04:53:08.211Z,81.20
2019-03-30T04:55:36.522Z,82.20
2019-03-30T04:58:05.177Z,82.67
2019-03-30T05:00:33.540Z,82.43
2019-03-30T05:03:01.847Z,83.10
2019-03-30T05:05:30.334Z,80.13
2019-03-30T05:07:58.729Z,85.10
2019-03-30T05:10:27.069Z,81.07
2019-03-30T05:12:55.656Z,81.90
2019-03-30T05:15:24.232Z,80.50
2019-03-30T05:17:52.846Z,85.13
2019-03-30T05:20:21.127Z,78.37
2019-03-30T05:22:51.320Z,78.40
2019-03-30T05:25:19.439Z,80.40
2019-03-30T05:27:48.077Z,76.63
2019-03-30T05:30:16.459Z,78.30
2019-03-30T05:32:45.035Z,74.27
2019-03-30T05:35:13.343Z,74.53
2019-03-30T05:37:41.699Z,76.97
2019-03-30T05:40:09.997Z,76.53
2019-03-30T05:42:38.760Z,71.60
2019-03-30T05:45:07.655Z,75.83
2019-03-30T05:47:36.229Z,72.67
2019-03-30T05:50:06.057Z,72.53
2019-03-30T05:52:35.754Z,71.80
2019-03-30T05:55:04.583Z,72.03
2019-03-30T05:57:32.914Z,69.97
2019-03-30T06:00:01.509Z,69.43
2019-03-30T06:02:30.091Z,67.30
2019-03-30T06:04:58.683Z,69.43
2019-03-30T06:07:27.565Z,71.40
2019-03-30T06:09:56.158Z,70.20
2019-03-30T06:12:24.425Z,73.37
2019-03-30T06:14:53.007Z,69.27
2019-03-30T06:17:21.318Z,70.80
2019-03-30T06:19:49.869Z,70.73
2019-03-30T06:22:18.179Z,66.93
2019-03-30T06:24:46.826Z,67.87
2019-03-30T06:27:15.471Z,66.33
2019-03-30T06:29:43.790Z,64.93
2019-03-30T06:32:12.073Z,64.50
2019-03-30T06:34:59.810Z,63.90
2019-03-30T06:37:28.550Z,61.90
2019-03-30T06:39:57.131Z,67.27
2019-03-30T06:42:25.714Z,60.10
2019-03-30T06:44:54.023Z,63.17
2019-03-30T06:47:22.678Z,59.93
2019-03-30T06:49:51.225Z,61.77
2019-03-30T06:52:19.527Z,55.10
2019-03-30T06:54:47.814Z,45.10
2019-03-30T06:57:16.116Z,44.20
2019-03-30T06:59:44.712Z,41.77
2019-03-30T07:02:13.108Z,41.20
2019-03-30T07:04:41.861Z,39.33
2019-03-30T07:07:10.531Z,41.20
2019-03-30T07:09:38.827Z,43.17
2019-03-30T07:12:07.411Z,44.80
2019-03-30T07:14:35.975Z,42.23
2019-03-30T07:17:04.367Z,42.60
2019-03-30T07:19:32.958Z,47.17
2019-03-30T07:22:01.321Z,45.60
2019-03-30T07:24:29.670Z,48.70
2019-03-30T07:26:58.300Z,50.17
2019-03-30T07:29:26.654Z,46.57
2019-03-30T07:31:54.966Z,45.37
2019-03-30T07:34:23.625Z,48.03
2019-03-30T07:36:51.917Z,48.70
2019-03-30T07:39:20.477Z,50.37
2019-03-30T07:41:48.766Z,55.43
2019-03-30T07:44:17.082Z,59.40
2019-03-30T07:46:45.362Z,59.87
2019-03-30T07:49:13.647Z,60.30
2019-03-30T07:51:42.269Z,60.80
2019-03-30T07:54:10.858Z,57.13
2019-03-30T07:56:39.451Z,58.07
2019-03-30T07:59:08.026Z,56.87
2019-03-30T08:01:36.327Z,55.23
2019-03-30T08:04:04.999Z,55.73
2019-03-30T08:06:33.570Z,61.07
2019-03-30T08:09:01.873Z,71.67
2019-03-30T08:11:30.259Z,60.00
2019-03-30T08:13:59.223Z,63.80
2019-03-30T08:16:27.811Z,61.80
2019-03-30T08:18:56.388Z,56.87
2019-03-30T08:21:24.664Z,61.00
2019-03-30T08:23:53.244Z,59.47
2019-03-30T08:26:21.538Z,63.07
2019-03-30T08:28:49.844Z,59.97
2019-03-30T08:31:18.492Z,58.57
2019-03-30T08:33:47.183Z,59.67
2019-03-30T08:36:15.772Z,59.07
2019-03-30T08:38:44.073Z,55.27
2019-03-30T08:41:12.725Z,52.23
2019-03-30T08:43:41.028Z,56.07
2019-03-30T08:46:09.429Z,54.80
2019-03-30T08:48:38.168Z,57.77
2019-03-30T08:51:09.819Z,51.37
2019-03-30T08:53:38.512Z,50.70
2019-03-30T08:56:06.826Z,64.00
2019-03-30T08:58:35.623Z,57.20
2019-03-30T09:01:04.269Z,54.97
2019-03-30T09:03:34.132Z,57.53
2019-03-30T09:06:02.875Z,62.03
2019-03-30T09:08:31.520Z,64.87
2019-03-30T09:11:00.126Z,66.20
2019-03-30T09:13:28.705Z,64.30
2019-03-30T09:15:57.005Z,63.40
2019-03-30T09:18:25.671Z,63.77
2019-03-30T09:20:54.266Z,58.67
2019-03-30T09:23:22.634Z,59.00
2019-03-30T09:25:51.219Z,59.20
2019-03-30T09:28:19.521Z,59.93
2019-03-30T09:30:48.178Z,62.33
2019-03-30T09:33:16.478Z,62.60
2019-03-30T09:35:45.039Z,57.13
2019-03-30T09:38:14.973Z,53.93
2019-03-30T09:40:43.765Z,55.97
2019-03-30T09:43:12.326Z,54.90
2019-03-30T09:45:40.628Z,52.27
2019-03-30T09:48:08.934Z,53.43
2019-03-30T09:50:37.568Z,54.90
2019-03-30T09:53:05.863Z,51.33
2019-03-30T09:55:34.253Z,49.83
2019-03-30T09:58:02.540Z,58.83
2019-03-30T10:00:31.189Z,49.83
2019-03-30T10:02:59.778Z,46.90
2019-03-30T10:05:28.090Z,47.67
2019-03-30T10:07:56.746Z,51.40
2019-03-30T10:10:28.242Z,50.93
2019-03-30T10:12:56.536Z,58.97
2019-03-30T10:15:25.110Z,56.87
2019-03-30T10:17:53.482Z,55.77
2019-03-30T10:20:22.233Z,56.87
2019-03-30T10:22:50.898Z,53.37
2019-03-30T10:25:19.602Z,49.57
2019-03-30T10:27:48.167Z,49.37
2019-03-30T10:30:18.102Z,53.90
2019-03-30T10:32:46.666Z,46.53
2019-03-30T10:35:15.250Z,44.07
2019-03-30T10:37:43.554Z,44.97
2019-03-30T10:40:12.125Z,42.50
2019-03-30T10:42:40.403Z,39.73
2019-03-30T10:45:08.715Z,40.30
2019-03-30T10:47:37.356Z,36.93
2019-03-30T10:50:07.195Z,39.43
2019-03-30T10:52:35.866Z,33.90
2019-03-30T10:55:05.556Z,36.90
2019-03-30T10:57:33.911Z,36.37
2019-03-30T11:00:02.651Z,34.13
2019-03-30T11:02:30.967Z,35.60
2019-03-30T11:04:59.602Z,28.67
2019-03-30T11:07:27.878Z,31.10
2019-03-30T11:09:56.196Z,26.73
2019-03-30T11:12:24.510Z,30.00
2019-03-30T11:14:53.224Z,30.77
2019-03-30T11:17:21.802Z,28.97
2019-03-30T11:19:50.380Z,30.53
2019-03-30T11:22:18.675Z,33.33
2019-03-30T11:24:47.343Z,33.83
2019-03-30T11:27:15.630Z,34.30
2019-03-30T11:29:44.303Z,35.10
2019-03-30T11:32:12.586Z,34.30
2019-03-30T11:34:40.875Z,36.07
2019-03-30T11:37:09.440Z,32.63
2019-03-30T11:39:38.016Z,31.33
2019-03-30T11:42:06.609Z,35.57
2019-03-30T11:44:34.903Z,31.37
2019-03-30T11:47:03.207Z,37.67
2019-03-30T11:49:31.501Z,33.17
2019-03-30T11:51:59.858Z,27.17
2019-03-30T11:54:28.162Z,27.90
2019-03-30T11:56:56.779Z,25.23
2019-03-30T11:59:25.086Z,28.53
2019-03-30T12:01:53.416Z,28.37
2019-03-30T12:04:21.793Z,25.50
2019-03-30T12:06:51.947Z,30.60
2019-03-30T12:09:20.349Z,29.80
2019-03-30T12:11:48.742Z,29.50
2019-03-30T12:14:17.034Z,34.43
2019-03-30T12:16:45.396Z,25.83
2019-03-30T12:19:14.569Z,30.60
2019-03-30T12:21:43.088Z,29.00
2019-03-30T12:24:11.707Z,29.93
2019-03-30T12:26:40.016Z,32.90
2019-03-30T12:29:08.305Z,31.07
2019-03-30T12:31:36.947Z,33.23
2019-03-30T12:34:05.236Z,39.90
2019-03-30T12:36:33.534Z,51.60
2019-03-30T12:39:01.822Z,48.30
2019-03-30T12:41:30.122Z,50.60
2019-03-30T12:43:58.415Z,45.43
2019-03-30T12:46:27.065Z,44.10
2019-03-30T12:48:55.647Z,45.33
2019-03-30T12:51:24.301Z,46.30
2019-03-30T12:53:52.621Z,43.97
2019-03-30T12:56:21.297Z,44.93
2019-03-30T12:58:49.626Z,44.33
2019-03-30T13:01:18.271Z,43.20
2019-03-30T13:03:47.270Z,44.40
2019-03-30T13:06:15.832Z,40.70
2019-03-30T13:08:44.158Z,45.23
2019-03-30T13:11:12.825Z,41.63
2019-03-30T13:13:43.097Z,43.47
2019-03-30T13:16:11.503Z,41.10
2019-03-30T13:18:40.183Z,44.00
2019-03-30T13:21:08.547Z,52.33
2019-03-30T13:23:37.158Z,74.67
2019-03-30T13:26:05.464Z,62.83
2019-03-30T13:28:33.818Z,65.87
2019-03-30T13:31:02.141Z,63.07
2019-03-30T13:33:30.527Z,61.00
2019-03-30T13:35:59.173Z,58.47
2019-03-30T13:38:27.731Z,57.10
2019-03-30T13:40:56.417Z,63.77
2019-03-30T13:43:24.990Z,61.20
2019-03-30T13:45:53.274Z,99.30
2019-03-30T13:48:21.856Z,78.23
2019-03-30T13:50:50.454Z,80.83
2019-03-30T13:53:19.028Z,78.30
2019-03-30T13:55:47.330Z,73.30
2019-03-30T13:58:16.016Z,69.43
2019-03-30T14:00:44.600Z,94.27
2019-03-30T14:03:13.161Z,91.07
2019-03-30T14:05:41.733Z,82.27
2019-03-30T14:08:10.453Z,84.33
2019-03-30T14:10:39.303Z,80.43
2019-03-30T14:13:07.671Z,78.50
2019-03-30T14:15:35.970Z,80.10
2019-03-30T14:18:04.569Z,77.80
2019-03-30T14:20:32.867Z,85.83
2019-03-30T14:23:01.519Z,81.43
2019-03-30T14:25:30.100Z,78.67
2019-03-30T14:27:58.406Z,80.17
2019-03-30T14:30:27.101Z,85.53
2019-03-30T14:32:55.757Z,77.33
2019-03-30T14:35:24.644Z,80.60
2019-03-30T14:37:52.952Z,76.63
2019-03-30T14:40:21.307Z,75.47
2019-03-30T14:42:49.984Z,88.37
2019-03-30T14:45:18.568Z,87.57
2019-03-30T14:47:49.167Z,98.90
2019-03-30T14:50:17.859Z,93.53
2019-03-30T14:52:46.136Z,89.37
2019-03-30T14:55:14.446Z,93.10
2019-03-30T14:57:42.780Z,90.17
2019-03-30T15:00:11.458Z,94.97
2019-03-30T15:02:39.832Z,86.97
2019-03-30T15:05:08.586Z,88.43
2019-03-30T15:07:56.364Z,94.13
2019-03-30T15:10:24.699Z,88.53
2019-03-30T15:12:52.982Z,88.63
2019-03-30T15:15:21.295Z,84.50
2019-03-30T15:17:49.919Z,127.57
2019-03-30T15:20:18.227Z,108.40
2019-03-30T15:22:46.511Z,106.30
2019-03-30T15:25:17.659Z,97.93
2019-03-30T15:27:46.493Z,101.27
2019-03-30T15:30:15.094Z,101.50
2019-03-30T15:32:43.687Z,100.60
2019-03-30T15:35:12.012Z,107.03
2019-03-30T15:37:40.846Z,102.27
2019-03-30T15:40:09.534Z,97.53
2019-03-30T15:42:40.121Z,116.97
2019-03-30T15:45:09.055Z,135.37
2019-03-30T15:47:37.734Z,121.80
2019-03-30T15:50:07.863Z,111.53
2019-03-30T15:52:36.157Z,104.73
2019-03-30T15:55:06.490Z,109.87
2019-03-30T15:57:39.361Z,123.47
2019-03-30T16:00:09.382Z,113.67
2019-03-30T16:02:38.126Z,106.60
2019-03-30T16:05:06.782Z,106.47
2019-03-30T16:07:35.418Z,103.03
2019-03-30T16:10:04.623Z,99.63
2019-03-30T16:12:33.040Z,101.20
2019-03-30T16:15:01.507Z,100.17
2019-03-30T16:17:29.786Z,97.77
2019-03-30T16:19:58.107Z,102.13
2019-03-30T16:22:26.722Z,98.77
2019-03-30T16:24:55.311Z,96.40
2019-03-30T16:27:29.225Z,98.43
2019-03-30T16:29:54.350Z,100.70
2019-03-30T16:32:22.898Z,90.30
2019-03-30T16:34:51.483Z,89.47
2019-03-30T16:37:19.758Z,93.13
2019-03-30T16:39:48.341Z,92.93
2019-03-30T16:42:17.027Z,199.40
2019-03-30T16:44:45.400Z,236.60
2019-03-30T16:47:13.806Z,228.67
2019-03-30T16:49:42.199Z,244.03
2019-03-30T16:52:12.409Z,164.80
2019-03-30T16:54:40.782Z,171.83
2019-03-30T16:57:10.635Z,147.97
2019-03-30T16:59:38.974Z,153.33
2019-03-30T17:02:07.553Z,141.00
2019-03-30T17:04:35.859Z,147.60
2019-03-30T17:07:04.505Z,139.90
2019-03-30T17:09:32.805Z,133.80
2019-03-30T17:12:01.367Z,134.80
2019-03-30T17:14:29.923Z,140.30
2019-03-30T17:16:58.207Z,134.17
2019-03-30T17:19:26.913Z,120.77
2019-03-30T17:21:55.738Z,131.70
2019-03-30T17:24:24.051Z,118.10
2019-03-30T17:26:52.659Z,121.03
2019-03-30T17:29:21.243Z,110.07
2019-03-30T17:31:49.580Z,115.17
2019-03-30T17:34:18.306Z,138.10
2019-03-30T17:36:46.627Z,122.03
2019-03-30T17:39:14.978Z,81.77
2019-03-30T17:42:03.136Z,92.83
2019-03-30T17:44:31.561Z,88.53
2019-03-30T17:46:59.978Z,74.47
2019-03-30T17:49:28.868Z,71.17
2019-03-30T17:51:57.547Z,72.27
2019-03-30T17:54:25.851Z,70.23
2019-03-30T17:56:54.543Z,70.80
2019-03-30T17:59:23.765Z,66.57
2019-03-30T18:01:52.677Z,68.43
2019-03-30T18:04:21.291Z,65.23
2019-03-30T18:06:49.864Z,67.57
2019-03-30T18:09:19.537Z,62.73
2019-03-30T18:11:48.184Z,65.97
2019-03-30T18:14:16.543Z,70.47
2019-03-30T18:16:45.224Z,59.57
2019-03-30T18:19:13.506Z,56.70
2019-03-30T18:21:41.807Z,55.50
2019-03-30T18:24:10.338Z,77.77
2019-03-30T18:26:38.633Z,58.23
2019-03-30T18:29:06.943Z,55.80
2019-03-30T18:31:35.691Z,58.27
2019-03-30T18:34:03.956Z,58.47
2019-03-30T18:36:32.275Z,60.67
2019-03-30T18:39:09.268Z,63.80
2019-03-30T18:41:31.471Z,67.47
2019-03-30T18:44:02.204Z,66.23
2019-03-30T18:46:30.087Z,71.03
2019-03-30T18:48:58.374Z,67.33
2019-03-30T18:51:26.706Z,66.23
2019-03-30T18:53:55.312Z,60.40
2019-03-30T18:56:27.670Z,59.13
2019-03-30T18:58:54.255Z,61.07
2019-03-30T19:01:22.554Z,66.67
2019-03-30T19:03:51.290Z,59.70
2019-03-30T19:06:19.587Z,60.30
2019-03-30T19:08:49.582Z,65.87
2019-03-30T19:11:18.158Z,74.13
2019-03-30T19:13:47.501Z,77.00
2019-03-30T19:16:16.105Z,76.60
2019-03-30T19:18:44.650Z,65.63
2019-03-30T19:21:12.935Z,70.37
2019-03-30T19:23:41.592Z,72.20
2019-03-30T19:26:09.880Z,81.47
2019-03-30T19:28:38.228Z,100.57
2019-03-30T19:31:06.705Z,104.27
2019-03-30T19:33:37.002Z,74.03
2019-03-30T19:36:05.282Z,93.20
2019-03-30T19:38:36.783Z,80.30
2019-03-30T19:41:05.160Z,72.67
2019-03-30T19:43:33.851Z,83.27
2019-03-30T19:46:02.844Z,80.50
2019-03-30T19:48:31.155Z,76.13
2019-03-30T19:50:59.519Z,81.53
2019-03-30T19:53:27.801Z,80.93
2019-03-30T19:55:56.240Z,76.70
2019-03-30T19:58:25.051Z,76.30
2019-03-30T20:00:53.643Z,72.43
2019-03-30T20:03:22.284Z,75.63
2019-03-30T20:05:50.576Z,70.07
2019-03-30T20:08:18.881Z,65.93
2019-03-30T20:10:47.195Z,67.90
2019-03-30T20:13:15.501Z,62.33
2019-03-30T20:15:43.845Z,62.73
2019-03-30T20:18:12.206Z,62.57
2019-03-30T20:20:40.873Z,59.13
2019-03-30T20:23:09.451Z,58.47
2019-03-30T20:25:37.746Z,61.90
2019-03-30T20:28:06.061Z,50.93
2019-03-30T20:30:34.430Z,60.77
2019-03-30T20:33:02.830Z,62.73
2019-03-30T20:35:31.581Z,59.30
2019-03-30T20:38:00.312Z,58.00
2019-03-30T20:40:28.960Z,60.13
2019-03-30T20:42:57.259Z,51.83
2019-03-30T20:45:25.788Z,52.67
2019-03-30T20:47:54.178Z,60.07
2019-03-30T20:50:22.588Z,75.40
2019-03-30T20:52:50.954Z,74.27
2019-03-30T20:55:19.504Z,84.90
2019-03-30T20:57:48.086Z,89.03
2019-03-30T21:00:17.720Z,87.70
2019-03-30T21:02:46.078Z,82.17
2019-03-30T21:05:14.770Z,93.63
2019-03-30T21:07:43.547Z,92.53
2019-03-30T21:10:11.844Z,87.00
2019-03-30T21:12:40.627Z,83.83
2019-03-30T21:15:08.971Z,86.00
2019-03-30T21:17:37.277Z,84.60
2019-03-30T21:20:07.593Z,79.67
2019-03-30T21:22:36.378Z,82.17
2019-03-30T21:25:06.011Z,72.67
2019-03-30T21:27:34.308Z,61.73
2019-03-30T21:30:03.457Z,68.10
2019-03-30T21:32:31.786Z,60.33
2019-03-30T21:35:00.432Z,71.20
2019-03-30T21:37:28.720Z,70.80
2019-03-30T21:39:57.161Z,79.13
2019-03-30T21:42:25.763Z,71.60
2019-03-30T21:44:54.050Z,69.03
2019-03-30T21:47:22.367Z,63.87
2019-03-30T21:49:51.112Z,64.43
2019-03-30T21:52:19.687Z,66.83
2019-03-30T21:54:47.987Z,62.93
2019-03-30T21:57:16.348Z,64.40
2019-03-30T21:59:44.930Z,64.70
2019-03-30T22:02:13.239Z,63.70
2019-03-30T22:04:41.904Z,62.97
2019-03-30T22:07:10.482Z,62.23
2019-03-30T22:09:39.038Z,62.43
2019-03-30T22:12:07.419Z,57.83
2019-03-30T22:14:36.033Z,55.80
2019-03-30T22:17:04.358Z,76.17
2019-03-30T22:19:32.642Z,70.97
2019-03-30T22:22:00.954Z,86.03
2019-03-30T22:24:29.248Z,79.90
2019-03-30T22:26:57.535Z,84.43
2019-03-30T22:29:25.934Z,85.20
2019-03-30T22:31:54.406Z,81.47
2019-03-30T22:34:22.679Z,79.13
2019-03-30T22:36:50.978Z,82.97
2019-03-30T22:39:19.331Z,78.23
2019-03-30T22:41:47.988Z,78.77
2019-03-30T22:44:16.570Z,80.07
2019-03-30T22:46:45.265Z,78.33
2019-03-30T22:49:13.835Z,87.90
2019-03-30T22:51:42.158Z,85.97
2019-03-30T22:54:10.807Z,94.90
2019-03-30T22:56:39.409Z,126.20
2019-03-30T22:59:07.814Z,125.43
2019-03-30T23:01:36.359Z,121.27
2019-03-30T23:04:05.033Z,123.27
2019-03-30T23:06:33.423Z,116.93
2019-03-30T23:09:02.002Z,112.57
2019-03-30T23:11:30.289Z,111.63
2019-03-30T23:13:58.599Z,116.37
2019-03-30T23:16:27.851Z,110.63
2019-03-30T23:18:56.256Z,113.07
2019-03-30T23:21:24.919Z,115.20
2019-03-30T23:23:53.451Z,112.97
2019-03-30T23:26:22.084Z,108.03
2019-03-30T23:28:50.677Z,108.63
2019-03-30T23:31:18.986Z,110.17
2019-03-30T23:33:47.818Z,108.70
2019-03-30T23:36:16.190Z,100.03
2019-03-30T23:38:44.514Z,98.03
2019-03-30T23:41:13.295Z,104.17
2019-03-30T23:43:41.975Z,130.40
2019-03-30T23:46:10.277Z,346.47
2019-03-30T23:48:38.558Z,194.23
2019-03-30T23:51:06.869Z,199.30
2019-03-30T23:53:35.189Z,170.03
2019-03-30T23:56:04.883Z,169.83
2019-03-30T23:58:33.475Z,158.07
